Time;durP1;ratioP1;P1;durP2;ratioP2;P2;SDS_P1;SDS_P2;PMS_P1;PMS_P2;Temp;Humidity;BMP_temperature;BMP_pressure;BME280_temperature;BME280_humidity;BME280_pressure;Samples;Min_cycle;Max_cycle;Signal;HPM_P1;HPM_P2
2022/01/05 00:00:01;;;;;;;12.18;4.85;;;2.40;99.90;;;;;;5142594;27;20051;-79
2022/01/05 00:02:27;;;;;;;13.68;5.07;;;2.40;99.90;;;;;;5147357;27;20050;-79
2022/01/05 00:04:54;;;;;;;6.60;3.28;;;2.40;99.90;;;;;;5123474;27;20047;-78
2022/01/05 00:07:21;;;;;;;12.38;3.95;;;2.30;99.90;;;;;;5141322;27;20055;-79
2022/01/05 00:09:48;;;;;;;9.05;4.03;;;2.30;99.90;;;;;;5141729;27;20049;-79
2022/01/05 00:12:15;;;;;;;7.40;3.83;;;2.20;99.90;;;;;;5133036;27;20135;-78
2022/01/05 00:14:41;;;;;;;6.88;3.85;;;2.20;99.90;;;;;;5136166;27;20055;-78
2022/01/05 00:17:08;;;;;;;9.95;3.40;;;2.20;99.90;;;;;;5142641;27;20047;-78
2022/01/05 00:19:34;;;;;;;10.05;3.22;;;2.20;99.90;;;;;;5136248;27;20042;-79
2022/01/05 00:22:01;;;;;;;9.68;2.30;;;2.20;99.90;;;;;;5144199;27;20053;-79
2022/01/05 00:24:27;;;;;;;5.72;2.17;;;2.10;99.90;;;;;;5130782;27;20043;-78
2022/01/05 00:26:54;;;;;;;12.55;2.38;;;2.20;99.90;;;;;;5120627;27;20043;-78
2022/01/05 00:29:20;;;;;;;11.73;2.40;;;2.10;99.90;;;;;;5121379;27;20050;-78
2022/01/05 00:31:47;;;;;;;5.85;2.38;;;2.10;99.90;;;;;;5150990;27;20061;-78
2022/01/05 00:34:14;;;;;;;8.93;2.95;;;2.10;99.90;;;;;;5119551;27;20049;-78
2022/01/05 00:36:40;;;;;;;17.77;3.03;;;2.10;99.90;;;;;;5122410;27;20043;-78
2022/01/05 00:39:07;;;;;;;6.45;2.33;;;2.10;99.90;;;;;;5143764;27;20047;-78
2022/01/05 00:41:33;;;;;;;16.13;2.92;;;2.00;99.90;;;;;;5143392;27;20042;-78
2022/01/05 00:44:00;;;;;;;9.43;2.60;;;2.00;99.90;;;;;;5138342;27;20047;-78
2022/01/05 00:46:26;;;;;;;5.28;2.47;;;2.10;99.90;;;;;;5130013;27;20051;-79
2022/01/05 00:48:53;;;;;;;7.95;3.08;;;2.10;99.90;;;;;;5140887;27;20058;-78
2022/01/05 00:51:19;;;;;;;12.80;3.47;;;2.00;99.90;;;;;;5140765;27;20043;-78
2022/01/05 00:53:46;;;;;;;11.13;2.63;;;2.00;99.90;;;;;;5123562;27;20074;-78
2022/01/05 00:56:12;;;;;;;5.05;2.00;;;2.00;99.90;;;;;;5126142;27;20054;-79
2022/01/05 00:58:39;;;;;;;12.38;2.83;;;2.00;99.90;;;;;;5129467;27;20058;-79
2022/01/05 01:01:05;;;;;;;8.43;2.00;;;2.00;99.90;;;;;;5125027;27;20042;-79
2022/01/05 01:03:32;;;;;;;10.30;3.22;;;2.00;99.90;;;;;;5128044;27;20076;-78
2022/01/05 01:05:59;;;;;;;6.90;2.80;;;2.00;99.90;;;;;;5140459;27;20481;-79
2022/01/05 01:08:26;;;;;;;8.38;2.88;;;2.00;99.90;;;;;;5126110;27;20051;-79
2022/01/05 01:10:52;;;;;;;17.05;3.20;;;2.00;99.90;;;;;;5118758;27;20050;-79
2022/01/05 01:13:19;;;;;;;8.85;3.28;;;2.00;99.90;;;;;;5129027;27;20087;-79
2022/01/05 01:15:46;;;;;;;16.08;3.13;;;2.00;99.90;;;;;;5123745;27;20062;-79
2022/01/05 01:18:12;;;;;;;9.93;3.75;;;1.90;99.90;;;;;;5122797;27;20039;-78
2022/01/05 01:20:39;;;;;;;9.95;3.38;;;1.90;99.90;;;;;;5136691;27;20039;-79
2022/01/05 01:23:05;;;;;;;8.30;3.92;;;2.00;99.90;;;;;;5135122;27;20054;-79
2022/01/05 01:25:32;;;;;;;17.23;4.90;;;2.10;99.90;;;;;;5147676;27;20390;-77
2022/01/05 01:27:59;;;;;;;14.25;3.72;;;2.00;99.90;;;;;;5140563;27;20053;-77
2022/01/05 01:30:25;;;;;;;11.48;3.95;;;2.10;99.90;;;;;;5120898;27;20619;-78
2022/01/05 01:32:52;;;;;;;10.77;3.22;;;2.10;99.90;;;;;;5125616;27;20073;-78
2022/01/05 01:35:18;;;;;;;10.57;3.92;;;2.10;99.90;;;;;;5128100;27;20046;-78
2022/01/05 01:37:45;;;;;;;12.30;3.75;;;2.20;99.90;;;;;;5125286;27;20754;-78
2022/01/05 01:40:11;;;;;;;10.88;3.33;;;2.20;99.90;;;;;;5141314;27;20481;-78
2022/01/05 01:42:38;;;;;;;7.07;2.58;;;2.20;99.90;;;;;;5125207;27;20405;-77
2022/01/05 01:45:04;;;;;;;12.70;3.67;;;2.20;99.90;;;;;;5133830;27;20142;-78
2022/01/05 01:47:31;;;;;;;16.95;4.72;;;2.30;99.90;;;;;;5125031;27;20039;-78
2022/01/05 01:49:57;;;;;;;17.85;6.13;;;2.30;99.90;;;;;;5134779;27;20052;-78
2022/01/05 01:52:24;;;;;;;16.73;7.07;;;2.30;99.90;;;;;;5117858;27;20127;-78
2022/01/05 01:54:51;;;;;;;17.10;4.97;;;2.30;99.90;;;;;;5133073;27;20081;-78
2022/01/05 01:57:18;;;;;;;17.20;4.47;;;2.30;99.90;;;;;;5118284;27;20045;-78
2022/01/05 01:59:44;;;;;;;18.38;4.90;;;2.30;99.90;;;;;;5126795;27;20060;-77
2022/01/05 02:02:11;;;;;;;16.90;5.38;;;2.40;99.90;;;;;;5116106;27;20047;-78
2022/01/05 02:04:39;;;;;;;16.77;5.97;;;2.50;99.90;;;;;;5125158;27;20058;-78
2022/01/05 02:07:05;;;;;;;17.23;4.57;;;2.50;99.90;;;;;;5115601;27;20428;-78
2022/01/05 02:09:32;;;;;;;16.15;4.90;;;2.50;99.90;;;;;;5122282;27;20501;-77
2022/01/05 02:11:58;;;;;;;13.30;3.28;;;2.50;99.90;;;;;;5145295;27;20409;-78
2022/01/05 02:14:25;;;;;;;9.82;3.17;;;2.50;99.90;;;;;;5117890;27;20038;-77
2022/01/05 02:16:51;;;;;;;6.53;3.17;;;2.60;99.90;;;;;;5131501;27;20050;-78
2022/01/05 02:19:18;;;;;;;13.93;4.10;;;2.50;99.90;;;;;;5120596;27;20119;-78
2022/01/05 02:21:45;;;;;;;19.17;5.15;;;2.40;99.90;;;;;;5131787;27;20406;-78
2022/01/05 02:24:11;;;;;;;12.65;4.05;;;2.40;99.90;;;;;;5123609;27;20062;-78
2022/01/05 02:26:38;;;;;;;21.52;4.80;;;2.40;99.90;;;;;;5127214;27;20054;-78
2022/01/05 02:29:04;;;;;;;7.78;3.13;;;2.40;99.90;;;;;;5118541;27;20055;-78
2022/01/05 02:31:31;;;;;;;17.08;4.65;;;2.40;99.90;;;;;;5124485;28;20054;-78
2022/01/05 02:33:57;;;;;;;8.15;3.85;;;2.40;99.90;;;;;;5121907;27;20055;-77
2022/01/05 02:36:24;;;;;;;18.35;4.20;;;2.30;99.90;;;;;;5124712;27;20047;-78
2022/01/05 02:38:50;;;;;;;6.22;4.50;;;2.30;99.90;;;;;;5142595;27;20414;-78
2022/01/05 02:41:17;;;;;;;12.93;5.70;;;2.30;99.90;;;;;;5133283;27;20410;-78
2022/01/05 02:43:43;;;;;;;12.45;5.00;;;2.20;99.90;;;;;;5130646;27;20390;-78
2022/01/05 02:46:10;;;;;;;13.95;6.32;;;2.20;99.90;;;;;;5134764;27;20047;-78
2022/01/05 02:48:36;;;;;;;20.70;6.38;;;2.20;99.90;;;;;;5120877;27;20051;-78
2022/01/05 02:51:05;;;;;;;14.27;4.40;;;2.30;99.90;;;;;;5140969;27;20054;-78
2022/01/05 02:53:31;;;;;;;12.52;3.67;;;2.30;99.90;;;;;;5127287;27;20050;-78
2022/01/05 02:55:58;;;;;;;10.65;4.10;;;2.30;99.90;;;;;;5138954;27;20046;-78
2022/01/05 02:58:24;;;;;;;24.92;4.10;;;2.30;99.90;;;;;;5122035;28;20482;-78
2022/01/05 03:00:51;;;;;;;14.70;3.08;;;2.40;99.90;;;;;;5137894;27;20482;-78
2022/01/05 03:03:18;;;;;;;12.55;3.08;;;2.40;99.90;;;;;;5131206;27;20054;-78
2022/01/05 03:05:44;;;;;;;14.35;4.90;;;2.40;99.90;;;;;;5125077;27;20216;-77
2022/01/05 03:08:11;;;;;;;12.88;4.38;;;2.40;99.90;;;;;;5127683;27;20073;-78
2022/01/05 03:10:37;;;;;;;24.65;5.22;;;2.40;99.90;;;;;;5120824;27;20042;-78
2022/01/05 03:13:04;;;;;;;15.50;5.25;;;2.50;99.90;;;;;;5122573;27;20047;-78
2022/01/05 03:15:30;;;;;;;8.23;3.90;;;2.40;99.90;;;;;;5117381;27;20238;-78
2022/01/05 03:17:57;;;;;;;18.30;4.28;;;2.50;99.90;;;;;;5126828;27;20073;-77
2022/01/05 03:20:23;;;;;;;10.65;3.50;;;2.50;99.90;;;;;;5118648;27;20052;-77
2022/01/05 03:22:50;;;;;;;14.90;4.57;;;2.50;99.90;;;;;;5119497;28;20047;-77
2022/01/05 03:25:17;;;;;;;15.65;4.35;;;2.50;99.90;;;;;;5115491;27;20044;-78
2022/01/05 03:27:43;;;;;;;13.07;4.22;;;2.50;99.90;;;;;;5130620;27;20089;-78
2022/01/05 03:30:10;;;;;;;10.93;3.35;;;2.50;99.90;;;;;;5125671;27;20043;-77
2022/01/05 03:32:47;;;;;;;17.70;4.32;;;2.50;99.90;;;;;;5125751;27;20057;-78
2022/01/05 03:35:14;;;;;;;19.40;4.00;;;2.50;99.90;;;;;;5136953;27;20096;-78
2022/01/05 03:37:40;;;;;;;19.35;5.30;;;2.50;99.90;;;;;;5121614;27;20401;-78
2022/01/05 03:40:07;;;;;;;17.85;3.72;;;2.60;99.90;;;;;;5128733;27;20382;-78
2022/01/05 03:42:33;;;;;;;6.68;2.95;;;2.60;99.90;;;;;;5116940;27;20047;-77
2022/01/05 03:45:00;;;;;;;12.18;2.58;;;2.60;99.90;;;;;;5121154;27;20043;-78
2022/01/05 03:47:26;;;;;;;15.35;3.35;;;2.60;99.90;;;;;;5149774;27;20050;-78
2022/01/05 03:49:53;;;;;;;9.05;3.17;;;2.60;99.90;;;;;;5151128;27;20042;-78
2022/01/05 03:52:19;;;;;;;13.35;3.40;;;2.70;99.90;;;;;;5125639;27;20062;-78
2022/01/05 03:54:46;;;;;;;16.67;3.75;;;2.70;99.90;;;;;;5133151;27;20047;-79
2022/01/05 03:57:12;;;;;;;15.75;3.35;;;2.80;99.90;;;;;;5126557;27;20414;-77
2022/01/05 03:59:39;;;;;;;15.07;3.60;;;2.80;99.90;;;;;;5116461;27;20561;-78
2022/01/05 04:02:05;;;;;;;18.73;3.53;;;2.80;99.90;;;;;;5121150;27;20547;-78
2022/01/05 04:04:32;;;;;;;13.23;3.47;;;2.80;99.90;;;;;;5131484;27;20057;-78
2022/01/05 04:06:58;;;;;;;17.02;3.40;;;2.80;99.90;;;;;;5117124;27;20047;-78
2022/01/05 04:09:25;;;;;;;17.23;3.45;;;2.90;99.90;;;;;;5135187;27;20051;-78
2022/01/05 04:11:52;;;;;;;11.10;3.35;;;2.90;99.90;;;;;;5133013;27;20057;-77
2022/01/05 04:14:18;;;;;;;16.10;4.07;;;2.90;99.90;;;;;;5142730;27;20050;-78
2022/01/05 04:16:45;;;;;;;12.63;2.92;;;2.90;99.90;;;;;;5142042;27;20043;-78
2022/01/05 04:19:11;;;;;;;10.60;2.83;;;2.90;99.90;;;;;;5133366;27;20431;-77
2022/01/05 04:21:38;;;;;;;10.07;2.58;;;2.80;99.90;;;;;;5123520;27;20039;-77
2022/01/05 04:24:04;;;;;;;10.90;2.78;;;2.90;99.90;;;;;;5126570;27;20054;-78
2022/01/05 04:26:31;;;;;;;12.95;3.45;;;2.80;99.90;;;;;;5134913;27;20058;-78
2022/01/05 04:28:57;;;;;;;13.60;3.28;;;2.80;99.90;;;;;;5144720;27;20053;-78
2022/01/05 04:31:24;;;;;;;18.50;3.80;;;2.90;99.90;;;;;;5139319;27;20050;-78
2022/01/05 04:33:50;;;;;;;18.33;3.55;;;2.90;99.90;;;;;;5126011;27;20046;-78
2022/01/05 04:36:17;;;;;;;22.70;3.45;;;2.90;99.90;;;;;;5134943;27;20047;-78
2022/01/05 04:38:43;;;;;;;16.73;3.88;;;3.00;99.90;;;;;;5116755;27;20047;-78
2022/01/05 04:41:10;;;;;;;13.25;3.15;;;3.00;99.90;;;;;;5127232;27;20058;-78
2022/01/05 04:43:36;;;;;;;14.52;3.80;;;3.00;99.90;;;;;;5126475;27;20046;-77
2022/01/05 04:46:03;;;;;;;8.82;3.75;;;3.10;99.90;;;;;;5134053;27;20043;-78
2022/01/05 04:48:30;;;;;;;12.98;2.38;;;3.00;99.90;;;;;;5124907;27;20054;-78
2022/01/05 04:50:56;;;;;;;12.27;2.47;;;3.00;99.90;;;;;;5140600;27;20036;-78
2022/01/05 04:53:23;;;;;;;15.57;3.85;;;3.00;99.90;;;;;;5139861;27;20043;-78
2022/01/05 04:55:49;;;;;;;6.78;2.85;;;3.00;99.90;;;;;;5116154;27;20046;-78
2022/01/05 04:58:16;;;;;;;12.25;3.05;;;3.00;99.90;;;;;;5117692;27;20043;-78
2022/01/05 05:00:42;;;;;;;14.57;2.85;;;3.00;99.90;;;;;;5129978;27;20039;-78
2022/01/05 05:03:09;;;;;;;23.70;3.53;;;3.00;99.90;;;;;;5123821;27;20047;-78
2022/01/05 05:05:35;;;;;;;6.88;3.17;;;3.00;99.90;;;;;;5140521;27;20493;-78
2022/01/05 05:08:02;;;;;;;21.77;3.58;;;3.00;99.90;;;;;;5147400;27;20050;-78
2022/01/05 05:10:29;;;;;;;10.88;2.50;;;3.10;99.90;;;;;;5132932;27;20055;-78
2022/01/05 05:12:55;;;;;;;7.78;2.13;;;3.10;99.90;;;;;;5127951;27;20047;-78
2022/01/05 05:15:22;;;;;;;16.30;2.85;;;3.10;99.90;;;;;;5149387;27;20058;-78
2022/01/05 05:17:48;;;;;;;14.48;3.22;;;3.10;99.90;;;;;;5144153;27;20055;-77
2022/01/05 05:20:15;;;;;;;9.13;2.38;;;3.20;99.90;;;;;;5122594;27;20046;-77
2022/01/05 05:22:41;;;;;;;8.13;2.63;;;3.20;99.90;;;;;;5129960;27;20047;-79
2022/01/05 05:25:08;;;;;;;14.02;3.63;;;3.20;99.90;;;;;;5151182;27;20054;-76
2022/01/05 05:27:34;;;;;;;17.88;4.00;;;3.20;99.90;;;;;;5133150;27;20051;-79
2022/01/05 05:30:01;;;;;;;9.73;3.25;;;3.20;99.90;;;;;;5133042;27;20043;-77
2022/01/05 05:32:27;;;;;;;9.82;2.28;;;3.20;99.90;;;;;;5114665;27;20486;-79
2022/01/05 05:34:54;;;;;;;10.48;3.13;;;3.30;99.90;;;;;;5120098;27;20501;-78
2022/01/05 05:37:20;;;;;;;11.52;2.70;;;3.30;99.90;;;;;;5140983;27;20053;-78
2022/01/05 05:39:47;;;;;;;5.47;2.20;;;3.30;99.90;;;;;;5118524;27;20062;-77
2022/01/05 05:42:14;;;;;;;10.50;3.75;;;3.30;99.90;;;;;;5114831;27;20054;-78
2022/01/05 05:44:40;;;;;;;8.30;2.40;;;3.30;99.90;;;;;;5121942;27;20050;-78
2022/01/05 05:47:07;;;;;;;9.77;3.50;;;3.50;99.90;;;;;;5119109;27;20063;-77
2022/01/05 05:49:33;;;;;;;15.80;2.80;;;3.50;99.90;;;;;;5133201;27;20051;-79
2022/01/05 05:52:00;;;;;;;11.02;3.28;;;3.50;99.90;;;;;;5127956;27;20050;-77
2022/01/05 05:54:26;;;;;;;17.95;3.60;;;3.50;99.90;;;;;;5126257;27;20059;-78
2022/01/05 05:56:53;;;;;;;11.70;1.98;;;3.60;99.90;;;;;;5142541;27;20131;-78
2022/01/05 05:59:19;;;;;;;18.30;3.30;;;3.50;99.90;;;;;;5122073;27;20054;-78
2022/01/05 06:01:46;;;;;;;12.60;2.47;;;3.60;99.90;;;;;;5135295;27;20051;-78
2022/01/05 06:04:12;;;;;;;9.27;3.08;;;3.70;99.90;;;;;;5147944;27;20054;-77
2022/01/05 06:06:39;;;;;;;9.77;2.25;;;3.70;99.90;;;;;;5121646;27;20051;-76
2022/01/05 06:09:05;;;;;;;14.50;3.05;;;3.70;99.90;;;;;;5116323;27;20047;-78
2022/01/05 06:11:33;;;;;;;7.65;3.13;;;3.70;99.90;;;;;;5147528;27;20115;-78
2022/01/05 06:14:00;;;;;;;16.73;3.60;;;3.70;99.90;;;;;;5124130;27;20220;-79
2022/01/05 06:16:26;;;;;;;14.30;2.75;;;3.70;99.90;;;;;;5128152;27;20047;-78
2022/01/05 06:18:53;;;;;;;9.70;2.88;;;3.70;99.90;;;;;;5121475;27;20054;-78
2022/01/05 06:21:19;;;;;;;7.85;2.75;;;3.50;99.90;;;;;;5120860;27;20047;-78
2022/01/05 06:23:46;;;;;;;8.15;3.00;;;3.50;99.90;;;;;;5120716;27;20061;-79
2022/01/05 06:26:12;;;;;;;9.45;2.78;;;3.50;99.90;;;;;;5144039;27;20053;-79
2022/01/05 06:28:39;;;;;;;9.32;3.10;;;3.30;99.90;;;;;;5147513;27;20046;-79
2022/01/05 06:31:05;;;;;;;11.70;3.33;;;3.30;99.90;;;;;;5133070;27;20046;-79
2022/01/05 06:33:32;;;;;;;6.60;2.50;;;3.30;99.90;;;;;;5130169;27;20061;-79
2022/01/05 06:35:59;;;;;;;6.13;2.63;;;3.30;99.90;;;;;;5124919;28;20047;-81
2022/01/05 06:38:26;;;;;;;13.38;3.30;;;3.30;99.90;;;;;;5126237;27;20059;-80
2022/01/05 06:40:52;;;;;;;13.00;3.45;;;3.30;99.90;;;;;;5123708;27;20481;-81
2022/01/05 06:43:19;;;;;;;5.65;2.35;;;3.30;99.90;;;;;;5126161;27;20043;-81
2022/01/05 06:45:45;;;;;;;15.82;2.85;;;3.40;99.90;;;;;;5141374;27;20050;-81
2022/01/05 06:48:12;;;;;;;5.93;1.85;;;3.40;99.90;;;;;;5145595;27;20043;-80
2022/01/05 06:50:38;;;;;;;12.32;3.50;;;3.50;99.90;;;;;;5140466;27;20374;-81
2022/01/05 06:53:05;;;;;;;13.73;3.85;;;3.50;99.90;;;;;;5137175;27;20043;-80
2022/01/05 06:55:31;;;;;;;10.32;2.55;;;3.50;99.90;;;;;;5140523;27;20383;-81
2022/01/05 06:57:58;;;;;;;14.38;3.33;;;3.50;99.90;;;;;;5139509;27;20482;-80
2022/01/05 07:00:26;;;;;;;15.48;1.75;;;3.50;99.90;;;;;;5145489;27;20048;-80
2022/01/05 07:02:52;;;;;;;9.45;2.95;;;3.60;99.90;;;;;;5136915;27;20047;-80
2022/01/05 07:05:19;;;;;;;17.05;2.72;;;3.60;99.90;;;;;;5151213;27;20043;-80
2022/01/05 07:07:46;;;;;;;14.50;2.50;;;3.60;99.90;;;;;;5121881;27;20062;-81
2022/01/05 07:10:12;;;;;;;9.52;2.13;;;3.60;99.90;;;;;;5133243;27;20050;-81
2022/01/05 07:12:39;;;;;;;24.58;4.18;;;3.60;99.90;;;;;;5154606;27;20109;-81
2022/01/05 07:15:05;;;;;;;7.97;2.40;;;3.60;99.90;;;;;;5128930;27;20050;-81
2022/01/05 07:17:32;;;;;;;7.80;2.70;;;3.60;99.90;;;;;;5128648;27;20055;-81
2022/01/05 07:19:58;;;;;;;12.38;2.70;;;3.60;99.90;;;;;;5141811;27;20043;-81
2022/01/05 07:22:25;;;;;;;12.10;2.88;;;3.60;99.90;;;;;;5134887;27;20054;-81
2022/01/05 07:24:52;;;;;;;5.70;2.70;;;3.70;99.90;;;;;;5126349;27;20058;-81
2022/01/05 07:27:18;;;;;;;11.48;2.38;;;3.70;99.90;;;;;;5128271;27;20054;-80
2022/01/05 07:29:45;;;;;;;8.20;3.03;;;3.70;99.90;;;;;;5148678;27;20043;-80
2022/01/05 07:32:11;;;;;;;9.38;2.35;;;3.80;99.90;;;;;;5128772;27;20058;-81
2022/01/05 07:34:38;;;;;;;12.50;3.40;;;3.80;99.90;;;;;;5125534;27;20078;-79
2022/01/05 07:37:04;;;;;;;17.80;3.90;;;3.80;99.90;;;;;;5154789;27;20410;-81
2022/01/05 07:39:31;;;;;;;8.68;2.72;;;3.80;99.90;;;;;;5131146;27;20493;-80
2022/01/05 07:41:57;;;;;;;10.07;2.38;;;3.80;99.90;;;;;;5142180;27;20058;-81
2022/01/05 07:44:24;;;;;;;10.98;2.40;;;3.90;99.90;;;;;;5128884;27;20039;-81
2022/01/05 07:46:51;;;;;;;6.50;2.00;;;3.80;99.90;;;;;;5139140;27;20489;-80
2022/01/05 07:49:17;;;;;;;15.90;3.08;;;3.80;99.90;;;;;;5136003;27;20095;-80
2022/01/05 07:51:44;;;;;;;6.63;2.45;;;3.80;99.90;;;;;;5121846;27;20058;-81
2022/01/05 07:54:10;;;;;;;6.82;1.65;;;3.90;99.90;;;;;;5130340;27;20401;-81
2022/01/05 07:56:37;;;;;;;7.68;1.85;;;3.90;99.90;;;;;;5142556;27;20059;-82
2022/01/05 07:59:04;;;;;;;11.73;2.63;;;3.90;99.90;;;;;;5135243;27;20493;-81
2022/01/05 08:01:30;;;;;;;8.75;2.40;;;3.80;99.90;;;;;;5151325;27;20489;-81
2022/01/05 08:03:57;;;;;;;8.45;2.25;;;4.00;99.90;;;;;;5122149;27;20085;-81
2022/01/05 08:06:23;;;;;;;8.25;1.67;;;3.90;99.90;;;;;;5118090;27;20055;-81
2022/01/05 08:08:50;;;;;;;9.48;2.58;;;4.00;99.90;;;;;;5130143;27;20066;-81
2022/01/05 08:11:16;;;;;;;7.10;2.15;;;4.00;99.90;;;;;;5123337;27;20047;-81
2022/01/05 08:13:43;;;;;;;8.23;1.73;;;4.00;99.90;;;;;;5120010;27;20057;-80
2022/01/05 08:16:09;;;;;;;12.00;1.52;;;4.00;99.90;;;;;;5131465;27;20058;-80
2022/01/05 08:18:36;;;;;;;7.65;1.45;;;4.00;99.90;;;;;;5131145;27;20047;-82
2022/01/05 08:21:03;;;;;;;7.30;1.80;;;4.00;99.90;;;;;;5119961;27;20039;-81
2022/01/05 08:23:29;;;;;;;4.20;1.48;;;4.10;99.90;;;;;;5128627;27;20126;-81
2022/01/05 08:25:56;;;;;;;11.65;2.15;;;4.00;99.90;;;;;;5120099;27;20472;-82
2022/01/05 08:28:22;;;;;;;12.15;2.40;;;4.10;99.90;;;;;;5128181;27;20043;-81
2022/01/05 08:30:49;;;;;;;14.40;2.15;;;4.20;99.90;;;;;;5114301;27;20123;-80
2022/01/05 08:33:15;;;;;;;6.50;1.90;;;4.20;99.90;;;;;;5131153;27;20054;-81
2022/01/05 08:35:42;;;;;;;7.30;1.60;;;4.20;99.90;;;;;;5133058;27;20196;-79
2022/01/05 08:38:08;;;;;;;15.55;2.20;;;4.30;99.90;;;;;;5129484;27;20130;-81
2022/01/05 08:40:35;;;;;;;14.95;2.70;;;4.30;99.90;;;;;;5123419;27;20525;-81
2022/01/05 08:43:02;;;;;;;6.50;1.90;;;4.40;99.90;;;;;;5113699;27;20105;-81
2022/01/05 08:45:28;;;;;;;12.98;2.33;;;4.40;99.90;;;;;;5113199;27;20052;-81
2022/01/05 08:47:55;;;;;;;4.22;1.65;;;4.50;99.90;;;;;;5114342;27;20047;-81
2022/01/05 08:50:21;;;;;;;7.63;1.55;;;4.50;99.90;;;;;;5119890;27;20055;-81
2022/01/05 08:52:48;;;;;;;9.73;1.65;;;4.50;99.90;;;;;;5120550;27;20058;-80
2022/01/05 08:55:14;;;;;;;6.47;1.77;;;4.60;99.90;;;;;;5120114;27;20056;-80
2022/01/05 08:57:42;;;;;;;4.65;1.80;;;4.60;99.90;;;;;;5130475;27;20062;-81
2022/01/05 09:00:08;;;;;;;6.50;1.70;;;4.60;99.90;;;;;;5124842;27;20429;-80
2022/01/05 09:02:35;;;;;;;7.85;1.52;;;4.70;99.90;;;;;;5122314;27;20079;-80
2022/01/05 09:05:01;;;;;;;5.20;1.67;;;4.60;99.90;;;;;;5132074;27;20058;-80
2022/01/05 09:07:28;;;;;;;7.85;1.40;;;4.60;99.90;;;;;;5119895;27;20135;-80
2022/01/05 09:09:54;;;;;;;8.13;1.10;;;4.60;99.90;;;;;;5121975;27;20051;-80
2022/01/05 09:12:21;;;;;;;10.73;2.10;;;4.60;99.90;;;;;;5115566;27;20047;-81
2022/01/05 09:14:47;;;;;;;8.25;2.05;;;4.70;99.90;;;;;;5114835;27;20043;-80
2022/01/05 09:17:14;;;;;;;6.32;1.67;;;4.70;99.90;;;;;;5125569;27;20043;-81
2022/01/05 09:19:42;;;;;;;15.80;1.73;;;4.70;99.90;;;;;;5118774;27;20059;-81
2022/01/05 09:22:08;;;;;;;9.95;2.03;;;4.80;99.90;;;;;;5119834;27;20055;-81
2022/01/05 09:24:36;;;;;;;8.57;2.38;;;4.90;99.90;;;;;;5119559;27;20155;-81
2022/01/05 09:27:04;;;;;;;14.43;2.50;;;4.90;99.90;;;;;;5116895;27;20074;-80
2022/01/05 09:29:31;;;;;;;10.68;3.10;;;5.00;99.90;;;;;;5125107;27;20100;-80
2022/01/05 09:31:57;;;;;;;6.82;2.05;;;4.90;99.90;;;;;;5111909;27;20050;-80
2022/01/05 09:34:24;;;;;;;10.40;3.05;;;4.90;99.90;;;;;;5127502;27;20047;-80
2022/01/05 09:36:58;;;;;;;14.38;2.78;;;5.00;99.90;;;;;;5125288;27;20043;-80
2022/01/05 09:42:09;;;;;;;8.15;3.50;;;5.20;99.90;;;;;;5130381;27;20226;-81
2022/01/05 09:44:37;;;;;;;20.55;3.08;;;5.40;99.90;;;;;;5130121;27;20405;-81
2022/01/05 09:47:04;;;;;;;16.90;3.25;;;5.40;99.90;;;;;;5128895;27;20118;-80
2022/01/05 09:49:31;;;;;;;20.42;3.35;;;5.40;99.90;;;;;;5128160;27;20099;-79
2022/01/05 09:51:57;;;;;;;11.07;2.78;;;5.50;99.90;;;;;;5127876;27;20055;-80
2022/01/05 09:54:24;;;;;;;13.32;2.47;;;5.60;99.90;;;;;;5129763;27;20058;-80
2022/01/05 09:56:50;;;;;;;10.35;3.10;;;5.60;99.90;;;;;;5129558;27;20047;-80
2022/01/05 09:59:17;;;;;;;12.30;3.15;;;5.70;99.90;;;;;;5131407;27;20047;-80
2022/01/05 10:01:44;;;;;;;11.10;2.72;;;5.60;99.90;;;;;;5127361;27;20039;-80
2022/01/05 10:04:13;;;;;;;12.07;3.15;;;5.60;99.90;;;;;;5126795;27;20043;-79
2022/01/05 10:06:40;;;;;;;16.42;3.65;;;5.70;99.90;;;;;;5126794;27;20046;-80
2022/01/05 10:09:06;;;;;;;12.05;3.42;;;5.80;99.90;;;;;;5125241;27;20047;-80
2022/01/05 10:11:33;;;;;;;27.67;4.20;;;6.00;99.90;;;;;;5124290;27;20043;-80
2022/01/05 10:13:59;;;;;;;17.88;3.13;;;6.00;99.90;;;;;;5124761;27;20044;-81
2022/01/05 10:16:26;;;;;;;14.00;3.95;;;6.10;99.90;;;;;;5127869;27;20051;-80
2022/01/05 10:18:52;;;;;;;13.30;3.38;;;6.10;99.90;;;;;;5128131;27;20050;-81
2022/01/05 10:21:19;;;;;;;21.05;4.18;;;6.30;99.90;;;;;;5129249;27;20059;-81
2022/01/05 10:23:46;;;;;;;18.75;3.05;;;6.30;99.90;;;;;;5129764;27;20039;-81
2022/01/05 10:26:12;;;;;;;27.52;4.13;;;6.20;99.90;;;;;;5127952;27;20039;-80
2022/01/05 10:28:39;;;;;;;11.98;3.38;;;6.50;99.90;;;;;;5128670;28;20058;-81
2022/01/05 10:31:05;;;;;;;15.77;3.38;;;6.50;99.90;;;;;;5128665;28;20047;-80
2022/01/05 10:33:33;;;;;;;12.82;3.25;;;6.60;99.90;;;;;;5124934;28;20051;-80
2022/01/05 10:36:00;;;;;;;18.85;4.35;;;6.80;99.90;;;;;;5128337;28;20100;-80
2022/01/05 10:38:26;;;;;;;22.85;3.90;;;7.00;99.90;;;;;;5128825;27;20039;-81
2022/01/05 10:40:53;;;;;;;13.10;4.05;;;7.10;99.90;;;;;;5130615;27;20051;-81
2022/01/05 10:43:19;;;;;;;24.88;4.35;;;7.10;99.90;;;;;;5129833;27;20115;-81
2022/01/05 10:45:46;;;;;;;15.65;3.20;;;7.10;99.90;;;;;;5132461;27;20062;-81
2022/01/05 10:48:12;;;;;;;17.98;3.53;;;7.10;99.90;;;;;;5132963;27;20039;-81
2022/01/05 10:50:39;;;;;;;18.35;3.50;;;6.90;99.90;;;;;;5129498;27;20055;-81
2022/01/05 10:53:05;;;;;;;30.80;4.70;;;7.00;99.90;;;;;;5132464;27;20055;-80
2022/01/05 10:55:32;;;;;;;18.23;4.22;;;7.30;99.90;;;;;;5131569;27;20134;-81
2022/01/05 10:57:59;;;;;;;28.60;4.38;;;7.20;99.90;;;;;;5128049;27;20055;-80
2022/01/05 11:00:25;;;;;;;22.00;4.13;;;7.20;99.90;;;;;;5130386;27;20478;-81
2022/01/05 11:02:52;;;;;;;20.20;4.25;;;7.30;99.90;;;;;;5130263;27;20432;-81
2022/01/05 11:05:18;;;;;;;15.45;3.58;;;7.10;99.90;;;;;;5133285;27;20046;-81
2022/01/05 11:07:47;;;;;;;18.35;3.72;;;6.80;99.90;;;;;;5132362;27;20061;-81
2022/01/05 11:10:13;;;;;;;22.73;4.93;;;7.00;99.90;;;;;;5130664;27;20078;-88
2022/01/05 11:12:40;;;;;;;22.27;4.80;;;6.90;99.90;;;;;;5130850;27;20047;-81
2022/01/05 11:15:06;;;;;;;33.40;6.20;;;6.50;99.90;;;;;;5126354;27;20043;-81
2022/01/05 11:17:33;;;;;;;14.13;4.47;;;6.60;99.90;;;;;;5130288;27;20497;-80
2022/01/05 11:19:59;;;;;;;26.65;4.63;;;6.70;99.90;;;;;;5130031;27;20445;-80
2022/01/05 11:22:26;;;;;;;16.27;4.00;;;6.80;99.90;;;;;;5131884;27;20043;-80
2022/01/05 11:24:52;;;;;;;15.52;4.22;;;7.00;99.90;;;;;;5115364;27;20055;-82
2022/01/05 11:27:19;;;;;;;15.93;4.03;;;7.00;99.90;;;;;;5119012;27;20047;-81
2022/01/05 11:29:46;;;;;;;28.42;4.13;;;7.00;99.90;;;;;;5116092;27;20051;-82
2022/01/05 11:32:12;;;;;;;21.17;3.83;;;7.20;99.90;;;;;;5128159;27;20047;-81
2022/01/05 11:34:39;;;;;;;18.05;4.82;;;7.30;99.90;;;;;;5131545;27;20058;-82
2022/01/05 11:37:07;;;;;;;33.95;5.80;;;7.40;99.90;;;;;;5134243;27;20062;-81
2022/01/05 11:39:34;;;;;;;18.60;5.40;;;7.50;99.90;;;;;;5130945;27;20127;-82
2022/01/05 11:42:00;;;;;;;25.33;5.88;;;7.50;99.90;;;;;;5132786;27;20071;-81
2022/01/05 11:44:27;;;;;;;32.10;5.22;;;7.60;99.90;;;;;;5131727;27;20100;-82
2022/01/05 11:46:53;;;;;;;11.20;3.65;;;7.70;99.90;;;;;;5131302;27;20054;-82
2022/01/05 11:49:21;;;;;;;14.93;3.85;;;7.80;99.90;;;;;;5129253;27;20059;-81
2022/01/05 11:51:48;;;;;;;27.35;5.38;;;7.80;99.90;;;;;;5130300;27;20047;-82
2022/01/05 11:54:14;;;;;;;20.90;3.95;;;7.70;99.90;;;;;;5120073;27;20108;-81
2022/01/05 11:56:41;;;;;;;26.50;5.28;;;7.70;99.90;;;;;;5123312;27;20051;-82
2022/01/05 11:59:07;;;;;;;20.85;4.70;;;7.60;99.90;;;;;;5119197;27;20079;-82
2022/01/05 12:01:34;;;;;;;30.80;5.10;;;7.70;99.90;;;;;;5120158;27;20474;-82
2022/01/05 12:04:01;;;;;;;20.13;6.15;;;7.70;99.90;;;;;;5115767;27;20075;-82
2022/01/05 12:06:29;;;;;;;20.92;5.22;;;7.60;99.90;;;;;;5124784;27;20044;-81
2022/01/05 12:08:55;;;;;;;20.70;4.68;;;7.80;99.90;;;;;;5126875;27;20090;-80
2022/01/05 12:11:22;;;;;;;20.25;5.07;;;7.60;99.90;;;;;;5117404;27;20062;-81
2022/01/05 12:13:48;;;;;;;27.48;6.05;;;7.50;99.90;;;;;;5114828;27;20053;-81
2022/01/05 12:16:15;;;;;;;19.77;5.07;;;7.70;99.90;;;;;;5118132;27;20058;-81
2022/01/05 12:18:43;;;;;;;16.10;4.00;;;7.60;99.90;;;;;;5123679;27;20051;-80
2022/01/05 12:21:10;;;;;;;14.50;3.30;;;7.60;99.90;;;;;;5118253;27;20055;-81
2022/01/05 12:23:36;;;;;;;17.80;4.75;;;7.80;99.90;;;;;;5118938;27;20047;-81
2022/01/05 12:26:03;;;;;;;18.17;4.63;;;7.70;99.90;;;;;;5133823;27;20054;-81
2022/01/05 12:28:29;;;;;;;14.98;3.75;;;7.90;99.90;;;;;;5123406;27;20076;-81
2022/01/05 12:30:56;;;;;;;15.40;3.90;;;7.90;99.90;;;;;;5117080;27;20040;-82
2022/01/05 12:33:22;;;;;;;13.32;3.85;;;8.00;99.90;;;;;;5115800;27;20052;-82
2022/01/05 12:35:49;;;;;;;25.27;3.53;;;8.00;99.90;;;;;;5132612;27;20056;-82
2022/01/05 12:38:15;;;;;;;22.05;3.80;;;8.00;99.90;;;;;;5122207;27;20051;-81
2022/01/05 12:40:42;;;;;;;11.38;2.83;;;8.20;99.90;;;;;;5125484;27;20058;-81
2022/01/05 12:43:09;;;;;;;15.45;3.45;;;8.10;99.90;;;;;;5123951;27;20044;-80
2022/01/05 12:45:35;;;;;;;13.77;3.65;;;7.90;99.90;;;;;;5119026;27;20054;-81
2022/01/05 12:48:02;;;;;;;14.85;5.45;;;7.90;99.90;;;;;;5125875;27;20047;-81